Flight Track Log - Related Links

Times and Time Zones

All times are in EDT time to prevent confusion due to time zone crossing. See the FFT532 flight status page for this flight to view local times or setup timezone preferences in your user account.

Time Position Orientation Groundspeed Altitude Reporting Facility
EDT Latitude Longitude Course Direction KTS MPH feet Rate Location/Type
Sun 09:10:23 AM 39.8550 -104.6760 90° East 9 10  Level FlightAware ADS-B
Sun 09:12:15 AM 39.8560 -104.6750 38° Northeast 29 33 503 Level FlightAware ADS-B
Sun 09:12:46 AM 39.8570 -104.6720 67° East 23 26 604 Level FlightAware ADS-B
Sun 09:13:21 AM 39.8570 -104.6680 90° East 25 29 640 Level FlightAware ADS-B
Sun 09:14:09 AM 39.8590 -104.6630 62° Northeast 19 22 686 Level FlightAware ADS-B
Sun 09:14:17 AM 39.8600 -104.6630 360° North 23 26 760 Level FlightAware ADS-B
Sun 09:15:24 AM 39.8650 -104.6620 North 23 26 774 Level FlightAware ADS-B
Sun 09:15:57 AM 39.8650 -104.6610 90° East 24 28 916 Level FlightAware ADS-B
Sun 09:16:31 AM 39.8650 -104.6570 90° East 27 31 1,006 Level FlightAware ADS-B
Sun 09:19:00 AM 39.8667 -104.2945 90° East  Level FlightAware Approximate
Sun 09:20:00 AM 39.8667 -104.1480 90° East  Level FlightAware Approximate
Sun 09:21:00 AM 39.8667 -104.0014 90° East  Level FlightAware Approximate
Sun 09:21:31 AM 39.8330 -104.6420 90° East 176 203 5,600  Level FlightAware ADS-B
Sun 09:21:51 AM 39.8170 -104.6350 161° South 181 208 6,300 1,625 Climbing FlightAware ADS-B
Sun 09:22:19 AM 39.7980 -104.6180 145° Southeast 200 230 6,900 1,071 Climbing FlightAware ADS-B
Sun 09:22:47 AM 39.7740 -104.5960 145° Southeast 241 277 7,300 1,700 Climbing FlightAware ADS-B
Sun 09:23:19 AM 39.7430 -104.5690 146° Southeast 254 292 8,600 2,667 Climbing FlightAware ADS-B
Sun 09:23:41 AM 39.7220 -104.5490 144° Southeast 253 291 9,700 2,850 Climbing FlightAware ADS-B
Sun 09:23:59 AM 39.7060 -104.5310 139° Southeast 251 289 10,500 2,400 Climbing FlightAware ADS-B
Sun 09:24:11 AM 39.7010 -104.5140 111° Southeast 259 298 10,900 1,929 Climbing FlightAware ADS-B
Sun 09:24:27 AM 39.6990 -104.4880 96° East 265 305 11,400 1,966 Climbing FlightAware ADS-B
Sun 09:25:09 AM 39.7050 -104.4230 83° East 283 326 12,800 1,692 Climbing FlightAware ADS-B
Sun 09:25:45 AM 39.7220 -104.3590 71° East 320 368 13,600 2,000 Climbing FlightAware ADS-B
Sun 09:26:27 AM 39.7420 -104.2820 71° East 328 377 15,400 2,268 Climbing FlightAware ADS-B
Sun 09:27:07 AM 39.7680 -104.2100 65° Northeast 340 391 16,700 2,154 Climbing FlightAware ADS-B
Sun 09:27:45 AM 39.8130 -104.1580 42° Northeast 341 392 18,200 2,233 Climbing FlightAware ADS-B
Sun 09:28:33 AM 39.8650 -104.0860 47° Northeast 352 405 19,900 2,100 Climbing FlightAware ADS-B
Sun 09:28:45 AM 39.8690 -104.0600 79° East 354 407 20,300 1,500 Climbing FlightAware ADS-B
Sun 09:29:29 AM 39.8750 -103.9650 85° East 372 428 21,300 1,143 Climbing FlightAware ADS-B
Sun 09:30:09 AM 39.8880 -103.8750 79° East 401 461 21,900 714 Climbing FlightAware ADS-B
Sun 09:30:53 AM 39.9040 -103.7690 79° East 434 499 22,300 786 Climbing FlightAware ADS-B
Sun 09:31:33 AM 39.9200 -103.6620 79° East 453 521 23,000 1,200 Climbing FlightAware ADS-B
Sun 09:32:13 AM 39.9370 -103.5510 79° East 461 531 23,900 1,465 Climbing FlightAware ADS-B
Sun 09:32:59 AM 39.9560 -103.4260 79° East 466 536 25,100 1,467 Climbing FlightAware ADS-B
Sun 09:33:43 AM 39.9740 -103.3050 79° East 475 547 26,100 1,350 Climbing FlightAware ADS-B
Sun 09:34:19 AM 39.9890 -103.2020 79° East 479 551 26,900 1,091 Climbing FlightAware ADS-B
Sun 09:35:00 AM 40.0060 -103.0860 79° East 488 562 27,500 1,125 Climbing FlightAware ADS-B
Sun 09:35:39 AM 40.0220 -102.9730 79° East 491 565 28,400 889 Climbing FlightAware ADS-B
Sun 09:36:21 AM 40.0380 -102.8650 79° East 493 567 28,700 237 Climbing FlightAware ADS-B
Sun 09:36:55 AM 40.0510 -102.7810 79° East 493 567 28,700  Level FlightAware ADS-B
Sun 09:37:41 AM 40.0680 -102.6660 79° East 493 567 28,700  Level FlightAware ADS-B
Sun 09:38:19 AM 40.0820 -102.5720 79° East 493 567 28,700  Level FlightAware ADS-B
Sun 09:39:20 AM 40.1040 -102.4200 79° East 493 567 28,700 2,346 Level FlightAware ADS-B
Sun 09:40:32 AM 40.1442 -102.1078 79° East 506 582 33,900 2,842 Climbing Denver Center
Sun 09:41:33 AM 40.1667 -101.9344 80° East 506 582 35,000 885 Climbing Denver Center
Sun 09:42:34 AM 40.1903 -101.7633 80° East 502 578 35,700 885 Climbing Denver Center
Sun 09:43:35 AM 40.2172 -101.5661 80° East 497 572 36,800 683 Climbing Denver Center
Sun 09:44:37 AM 40.2381 -101.3964 81° East 496 571 37,100 146 Climbing Denver Center
Sun 09:45:38 AM 40.2642 -101.1989 80° East 495 570 37,100  Level Denver Center
Sun 09:46:39 AM 40.2867 -101.0294 80° East 495 570 37,100 -49 Level Denver Center
Sun 09:47:40 AM 40.3075 -100.8600 81° East 495 570 37,000  Descending Denver Center
Sun 09:48:41 AM 40.3325 -100.6622 81° East 496 571 37,100 49 Climbing Denver Center
Sun 09:49:43 AM 40.3533 -100.4939 81° East 494 568 37,100 -49 Level Denver Center
Sun 09:50:44 AM 40.3764 -100.2969 81° East 492 566 37,000  Descending Denver Center
Sun 09:51:45 AM 40.3972 -100.1283 81° East 492 566 37,100 590 Climbing Denver Center
Sun 09:52:46 AM 40.4206 -99.9319 81° East 490 564 38,200 927 Climbing Denver Center
Sun 09:53:48 AM 40.4389 -99.7725 81° East 481 554 39,000 115 Climbing Denver Center
Sun 09:59:43 AM 40.5550 -98.7360 81° East 475 547 39,000  Level FlightAware ADS-B
Sun 10:00:23 AM 40.5670 -98.6230 82° East 479 551 39,000 71 Level FlightAware ADS-B
Sun 10:01:07 AM 40.5820 -98.4930 81° East 478 550 39,100 58 Climbing FlightAware ADS-B
Sun 10:02:07 AM 40.6090 -98.3450 76° East 477 549 39,100  Level FlightAware ADS-B
Sun 10:02:47 AM 40.6310 -98.2120 78° East 476 548 39,100  Level FlightAware ADS-B
Sun 10:03:27 AM 40.6500 -98.0990 77° East 476 548 39,100 -70 Level FlightAware ADS-B
Sun 10:04:13 AM 40.6720 -97.9690 77° East 479 551 39,000  Descending FlightAware ADS-B
Sun 10:04:53 AM 40.6900 -97.8590 78° East 479 551 39,100 75 Climbing FlightAware ADS-B
Sun 10:05:33 AM 40.7100 -97.7430 77° East 479 551 39,100  Level FlightAware ADS-B
Sun 10:06:18 AM 40.7300 -97.6130 78° East 479 551 39,100  Level FlightAware ADS-B
Sun 10:06:57 AM 40.7450 -97.5030 80° East 480 552 39,100 -71 Level FlightAware ADS-B
Sun 10:07:42 AM 40.7620 -97.3710 80° East 482 555 39,000  Descending FlightAware ADS-B
Sun 10:08:17 AM 40.7700 -97.2700 84° East 483 556 39,100  Climbing FlightAware ADS-B
Sun 10:09:01 AM 40.7800 -97.1510 84° East 483 556 39,000 -71 Descending FlightAware ADS-B
Sun 10:09:42 AM 40.7910 -97.0200 84° East 485 558 39,000  Level FlightAware ADS-B
Sun 10:10:37 AM 40.8040 -96.8570 84° East 490 564 39,000 52 Level FlightAware ADS-B
Sun 10:11:38 AM 40.8180 -96.6940 83° East 489 563 39,100 58 Climbing FlightAware ADS-B
Sun 10:12:21 AM 40.8290 -96.5490 84° East 485 558 39,100  Level FlightAware ADS-B
Sun 10:12:58 AM 40.8370 -96.4390 84° East 485 558 39,100 -78 Level FlightAware ADS-B
Sun 10:13:38 AM 40.8460 -96.3200 84° East 487 560 39,000  Descending FlightAware ADS-B
Sun 10:14:20 AM 40.8550 -96.1990 84° East 483 556 39,100  Climbing FlightAware ADS-B
Sun 10:16:08 AM 40.8780 -95.8970 84° East 481 554 39,000  Descending FlightAware ADS-B
Sun 10:16:54 AM 40.8880 -95.7500 85° East 481 554 39,100 71 Climbing FlightAware ADS-B
Sun 10:17:32 AM 40.8960 -95.6400 84° East 480 552 39,100  Level FlightAware ADS-B
Sun 10:18:12 AM 40.9040 -95.5250 85° East 479 551 39,100  Level FlightAware ADS-B
Sun 10:18:49 AM 40.9110 -95.4220 85° East 478 550 39,100  Level FlightAware ADS-B
Sun 10:19:30 AM 40.9200 -95.2960 85° East 477 549 39,100  Level FlightAware ADS-B
Sun 10:20:12 AM 40.9280 -95.1720 85° East 471 542 39,100 -74 Level FlightAware ADS-B
Sun 10:20:51 AM 40.9350 -95.0640 85° East 474 545 39,000  Descending FlightAware ADS-B
Sun 10:21:36 AM 40.9430 -94.9300 85° East 479 551 39,100  Climbing FlightAware ADS-B
Sun 10:22:16 AM 40.9510 -94.8130 85° East 481 554 39,000 -71 Descending FlightAware ADS-B
Sun 10:23:00 AM 40.9580 -94.6900 86° East 483 556 39,000 73 Level FlightAware ADS-B
Sun 10:23:38 AM 40.9650 -94.5750 85° East 481 554 39,100  Climbing FlightAware ADS-B
Sun 10:24:12 AM 40.9710 -94.4750 85° East 477 549 39,000  Descending FlightAware ADS-B
Sun 10:24:46 AM 40.9770 -94.3750 85° East 475 547 39,100 79 Climbing FlightAware ADS-B
Sun 10:25:28 AM 40.9840 -94.2540 86° East 476 548 39,100 -70 Level FlightAware ADS-B
Sun 10:26:12 AM 40.9920 -94.1310 85° East 478 550 39,000  Descending FlightAware ADS-B
Sun 10:26:53 AM 40.9980 -94.0110 86° East 475 547 39,100 60 Climbing FlightAware ADS-B
Sun 10:27:52 AM 41.0080 -93.8400 86° East 474 545 39,100  Level FlightAware ADS-B
Sun 10:28:36 AM 41.0150 -93.7100 86° East 476 548 39,100 -75 Level FlightAware ADS-B
Sun 10:29:12 AM 41.0200 -93.6060 86° East 479 551 39,000 -77 Descending FlightAware ADS-B
Sun 10:29:54 AM 41.0260 -93.4870 86° East 475 547 39,000  Level FlightAware ADS-B
Sun 10:30:30 AM 41.0320 -93.3780 86° East 474 545 39,000 -366 Level FlightAware ADS-B
Sun 10:31:16 AM 41.0380 -93.2480 86° East 468 539 38,500 -667 Descending FlightAware ADS-B
Sun 10:31:42 AM 41.0420 -93.1760 86° East 464 534 38,200 -750 Descending FlightAware ADS-B
Sun 10:32:28 AM 41.0480 -93.0490 86° East 464 534 37,600 -818 Descending FlightAware ADS-B
Sun 10:33:10 AM 41.0540 -92.9250 86° East 467 537 37,000 -846 Descending FlightAware ADS-B
Sun 10:33:46 AM 41.0580 -92.8230 87° East 468 539 36,500 -740 Descending FlightAware ADS-B
Sun 10:34:23 AM 41.0630 -92.7300 86° East 467 537 36,100 -723 Descending FlightAware ADS-B
Sun 10:35:09 AM 41.0690 -92.5880 87° East 475 547 35,500 -846 Descending FlightAware ADS-B
Sun 10:35:41 AM 41.0730 -92.4940 87° East 475 547 35,000 -831 Descending FlightAware ADS-B
Sun 10:36:14 AM 41.0770 -92.3950 87° East 475 547 34,600 -727 Descending FlightAware ADS-B
Sun 10:36:47 AM 41.0810 -92.3020 87° East 476 548 34,200 -740 Descending FlightAware ADS-B
Sun 10:37:27 AM 41.0860 -92.1860 87° East 477 549 33,700 -578 Descending FlightAware ADS-B
Sun 10:38:10 AM 41.0900 -92.0690 87° East 478 550 33,400 -800 Descending FlightAware ADS-B
Sun 10:38:57 AM 41.0960 -91.9190 87° East 479 551 32,500 -989 Descending FlightAware ADS-B
Sun 10:39:41 AM 41.1010 -91.7890 87° East 479 551 31,900 -825 Descending FlightAware ADS-B
Sun 10:40:17 AM 41.1040 -91.6860 88° East 473 544 31,400 -635 Descending FlightAware ADS-B
Sun 10:41:06 AM 41.1090 -91.5470 87° East 471 542 31,000 -276 Descending FlightAware ADS-B
Sun 10:43:11 AM 41.1210 -91.1860 87° East 468 539 30,600 -552 Descending FlightAware ADS-B
Sun 10:43:49 AM 41.1240 -91.0810 88° East 472 543 29,500 -2,127 Descending FlightAware ADS-B
Sun 10:44:30 AM 41.1280 -90.9620 87° East 467 537 27,800 -2,089 Descending FlightAware ADS-B
Sun 10:46:27 AM 41.1370 -90.6380 88° East 431 496 24,000 -1,748 Descending FlightAware ADS-B
Sun 10:47:01 AM 41.1390 -90.5500 88° East 424 488 23,400 -833 Descending FlightAware ADS-B
Sun 10:47:39 AM 41.1410 -90.4550 88° East 427 491 23,000 -242 Descending FlightAware ADS-B
Sun 10:48:40 AM 41.1450 -90.2940 88° East 428 493 23,000 -124 Level FlightAware ADS-B
Sun 10:49:16 AM 41.1470 -90.2000 88° East 422 486 22,800 -1,244 Descending FlightAware ADS-B
Sun 10:50:02 AM 41.1500 -90.0840 88° East 411 473 21,300 -2,045 Descending FlightAware ADS-B
Sun 10:50:44 AM 41.1520 -89.9750 89° East 405 466 19,800 -2,093 Descending FlightAware ADS-B
Sun 10:51:28 AM 41.1540 -89.8680 89° East 396 456 18,300 -2,000 Descending FlightAware ADS-B
Sun 10:52:08 AM 41.1560 -89.7730 88° East 389 448 17,000 -1,658 Descending FlightAware ADS-B
Sun 10:52:44 AM 41.1580 -89.6870 88° East 375 432 16,200 -1,135 Descending FlightAware ADS-B
Sun 10:53:22 AM 41.1590 -89.6040 89° East 369 425 15,600 -951 Descending FlightAware ADS-B
Sun 10:54:06 AM 41.1650 -89.5050 85° East 366 421 14,900 -955 Descending FlightAware ADS-B
Sun 10:54:50 AM 41.1720 -89.4090 84° East 364 419 14,200 -977 Descending FlightAware ADS-B
Sun 10:55:32 AM 41.1790 -89.3100 85° East 359 413 13,500 -1,000 Descending FlightAware ADS-B
Sun 10:56:14 AM 41.1850 -89.2180 85° East 356 410 12,800 -987 Descending FlightAware ADS-B
Sun 10:56:51 AM 41.1900 -89.1390 85° East 354 407 12,200 -1,000 Descending FlightAware ADS-B
Sun 10:57:38 AM 41.1990 -89.0370 83° East 348 400 11,400 -1,034 Descending FlightAware ADS-B
Sun 10:58:18 AM 41.2320 -88.9660 58° Northeast 349 402 10,700 -1,029 Descending FlightAware ADS-B
Sun 10:58:48 AM 41.2580 -88.9140 56° Northeast 333 383 10,200 -828 Descending FlightAware ADS-B
Sun 10:59:16 AM 41.2810 -88.8650 58° Northeast 318 366 9,900 -414 Descending FlightAware ADS-B
Sun 10:59:46 AM 41.3040 -88.8180 57° Northeast 300 345 9,800 -333 Descending FlightAware ADS-B
Sun 10:59:52 AM 41.3090 -88.8090 54° Northeast 300 345 9,700 -1,200 Descending FlightAware ADS-B
Sun 11:01:11 AM 41.3650 -88.6940 57° Northeast 294 338 8,100 -1,319 Descending FlightAware ADS-B
Sun 11:01:23 AM 41.3760 -88.6710 57° Northeast 293 337 7,700 -1,538 Descending FlightAware ADS-B
Sun 11:01:50 AM 41.3960 -88.6290 58° Northeast 287 330 7,100 -977 Descending FlightAware ADS-B
Sun 11:02:06 AM 41.4070 -88.6070 56° Northeast 284 327 7,000 -273 Descending FlightAware ADS-B
Sun 11:02:34 AM 41.4270 -88.5650 58° Northeast 287 330 6,900 -133 Descending FlightAware ADS-B
Sun 11:02:51 AM 41.4400 -88.5390 56° Northeast 287 330 6,900 -125 Level FlightAware ADS-B
Sun 11:03:22 AM 41.4620 -88.4930 57° Northeast 285 328 6,800 -327 Descending FlightAware ADS-B
Sun 11:03:46 AM 41.4790 -88.4570 58° Northeast 286 329 6,600 -577 Descending FlightAware ADS-B
Sun 11:04:14 AM 41.4990 -88.4160 57° Northeast 285 328 6,300 -545 Descending FlightAware ADS-B
Sun 11:04:41 AM 41.5140 -88.3710 66° East 288 331 6,100 -556 Descending FlightAware ADS-B
Sun 11:05:08 AM 41.5220 -88.3260 77° East 288 331 5,800 -545 Descending FlightAware ADS-B
Sun 11:05:36 AM 41.5310 -88.2780 76° East 286 329 5,600 -545 Descending FlightAware ADS-B
Sun 11:05:52 AM 41.5360 -88.2500 77° East 286 329 5,400 -571 Descending FlightAware ADS-B
Sun 11:06:18 AM 41.5450 -88.2070 74° East 286 329 5,200 -474 Descending FlightAware ADS-B
Sun 11:06:30 AM 41.5480 -88.1860 79° East 285 328 5,100 -429 Descending FlightAware ADS-B
Sun 11:07:00 AM 41.5580 -88.1340 76° East 285 328 4,900 -255 Descending FlightAware ADS-B
Sun 11:07:17 AM 41.5630 -88.1060 77° East 285 328 4,900  Level FlightAware ADS-B
Sun 11:07:42 AM 41.5690 -88.0620 80° East 286 329 4,900  Level FlightAware ADS-B
Sun 11:08:10 AM 41.5710 -88.0120 87° East 288 331 4,900  Level FlightAware ADS-B
Sun 11:08:34 AM 41.5720 -87.9720 88° East 287 330 4,900  Level FlightAware ADS-B
Sun 11:08:53 AM 41.5740 -87.9360 86° East 273 314 4,900  Level FlightAware ADS-B
Sun 11:09:25 AM 41.5750 -87.8860 88° East 246 283 4,900 -98 Level FlightAware ADS-B
Sun 11:09:54 AM 41.5770 -87.8440 86° East 245 282 4,800 -383 Descending FlightAware ADS-B
Sun 11:10:12 AM 41.5780 -87.8150 87° East 251 289 4,600 -714 Descending FlightAware ADS-B
Sun 11:10:36 AM 41.5800 -87.7770 86° East 260 299 4,300 -600 Descending FlightAware ADS-B
Sun 11:11:22 AM 41.5850 -87.7140 84° East 251 289 3,900 -387 Descending FlightAware ADS-B
Sun 11:11:38 AM 41.5990 -87.6880 54° Northeast 235 270 3,900  Level FlightAware ADS-B
Sun 11:11:52 AM 41.6080 -87.6750 47° Northeast 233 268 3,900 -682 Level FlightAware ADS-B
Sun 11:12:22 AM 41.6310 -87.6400 49° Northeast 230 265 3,400 -889 Descending FlightAware ADS-B
Sun 11:12:46 AM 41.6480 -87.6180 44° Northeast 219 252 3,100 -833 Descending FlightAware ADS-B
Sun 11:12:58 AM 41.6590 -87.6090 31° Northeast 209 241 2,900 -692 Descending FlightAware ADS-B
Sun 11:13:12 AM 41.6710 -87.6070 North 200 230 2,800 -600 Descending FlightAware ADS-B
Sun 11:13:28 AM 41.6850 -87.6110 348° North 187 215 2,600 -600 Descending FlightAware ADS-B
Sun 11:13:42 AM 41.6940 -87.6190 326° Northwest 179 206 2,500 -706 Descending FlightAware ADS-B
Sun 11:14:02 AM 41.7050 -87.6370 309° West 180 207 2,200 -882 Descending FlightAware ADS-B
Sun 11:14:16 AM 41.7130 -87.6490 312° West 182 209 2,000 -480 Descending FlightAware ADS-B
Sun 11:14:52 AM 41.7350 -87.6770 316° Northwest 187 215 1,800 -391 Descending FlightAware ADS-B
Sun 11:15:02 AM 41.7430 -87.6790 349° North 191 220 1,700 -279 Descending FlightAware ADS-B
Sun 11:15:35 AM 41.7650 -87.6550 39° Northeast 190 219 1,600 -133 Descending FlightAware ADS-B
Sun 11:15:47 AM 41.7720 -87.6450 47° Northeast 186 214 1,600  Level FlightAware ADS-B
Sun 11:15:59 AM 41.7810 -87.6410 18° North 178 205 1,600  Level FlightAware ADS-B
Sun 11:16:30 AM 41.8030 -87.6540 336° Northwest 172 198 1,600 -107 Level FlightAware ADS-B
Sun 11:16:55 AM 41.8180 -87.6720 318° Northwest 165 190 1,500 -162 Descending FlightAware ADS-B
Sun 11:17:07 AM 41.8210 -87.6830 290° West 164 189 1,500  Level FlightAware ADS-B
Sun 11:17:23 AM 41.8210 -87.6980 270° West 147 169 1,500 -214 Level FlightAware ADS-B
Sun 11:17:35 AM 41.8180 -87.7070 246° West 140 161 1,400 -800 Descending FlightAware ADS-B
Sun 11:17:53 AM 41.8110 -87.7190 232° Southwest 130 150 1,100 -421 Descending FlightAware ADS-B
Sun 11:18:32 AM 41.7960 -87.7380 223° Southwest 125 144 1,000 -154 Descending FlightAware ADS-B

Login

Don't have an account? Register now (free) for customized features, flight alerts, and more!